createdAt,value
2022-11-07T00:00:55.824Z,10.66
2022-11-07T00:05:57.701Z,10.71
2022-11-07T00:11:03.673Z,10.77
2022-11-07T00:16:08.547Z,10.80
2022-11-07T00:21:10.903Z,10.69
2022-11-07T00:26:14.836Z,10.63
2022-11-07T00:31:18.347Z,10.69
2022-11-07T00:36:23.296Z,10.74
2022-11-07T00:41:25.582Z,10.73
2022-11-07T00:46:27.385Z,10.68
2022-11-07T00:51:29.465Z,10.65
2022-11-07T00:56:31.274Z,10.65
2022-11-07T01:01:33.849Z,10.65
2022-11-07T01:06:38.993Z,10.65
2022-11-07T01:11:42.281Z,10.65
2022-11-07T01:16:44.564Z,10.67
2022-11-07T01:21:46.647Z,10.68
2022-11-07T01:26:48.950Z,10.69
2022-11-07T01:31:51.016Z,10.69
2022-11-07T01:37:02.209Z,10.67
2022-11-07T01:42:04.615Z,10.67
2022-11-07T01:47:07.627Z,10.69
2022-11-07T01:52:23.308Z,10.71
2022-11-07T01:57:40.461Z,10.68
2022-11-07T02:02:44.340Z,10.67
2022-11-07T02:07:47.153Z,10.67
2022-11-07T02:12:49.336Z,10.67
2022-11-07T02:17:51.225Z,10.67
2022-11-07T02:23:44.408Z,10.67
2022-11-07T02:28:48.547Z,10.70
2022-11-07T02:33:50.733Z,10.73
2022-11-07T02:38:58.891Z,10.74
2022-11-07T02:44:05.752Z,10.75
2022-11-07T02:49:07.631Z,10.77
2022-11-07T02:54:09.490Z,10.77
2022-11-07T02:59:11.315Z,10.74
2022-11-07T03:04:13.246Z,10.69
2022-11-07T03:09:15.153Z,10.62
2022-11-07T03:14:17.204Z,10.55
2022-11-07T03:19:18.978Z,10.55
2022-11-07T03:24:21.170Z,10.57
2022-11-07T03:29:23.044Z,10.59
2022-11-07T03:34:24.918Z,10.55
2022-11-07T03:39:26.687Z,10.44
2022-11-07T03:44:28.574Z,10.34
2022-11-07T03:49:30.324Z,10.26
2022-11-07T03:54:32.080Z,10.13
2022-11-07T03:59:33.904Z,9.97
2022-11-07T04:04:35.781Z,9.86
2022-11-07T04:09:37.515Z,9.75
2022-11-07T04:14:58.273Z,9.63
2022-11-07T04:20:00.154Z,9.46
2022-11-07T04:25:02.026Z,9.25
2022-11-07T04:30:19.309Z,9.08
2022-11-07T04:35:24.303Z,8.96
2022-11-07T04:40:27.124Z,8.88
2022-11-07T04:45:28.990Z,8.82
2022-11-07T04:50:31.277Z,8.81
2022-11-07T04:55:33.106Z,8.81
2022-11-07T05:00:34.852Z,8.80
2022-11-07T05:05:36.811Z,8.78
2022-11-07T05:10:38.887Z,8.74
2022-11-07T05:15:41.277Z,8.73
2022-11-07T05:20:43.028Z,8.71
2022-11-07T05:25:50.358Z,8.68
2022-11-07T05:30:52.231Z,8.67
2022-11-07T05:35:54.362Z,8.65
2022-11-07T05:40:56.194Z,8.64
2022-11-07T05:46:01.757Z,8.62
2022-11-07T05:51:05.695Z,8.60
2022-11-07T05:56:07.557Z,8.64
2022-11-07T06:01:09.333Z,8.71
2022-11-07T06:06:11.133Z,8.81
2022-11-07T06:11:12.988Z,8.89
2022-11-07T06:16:14.967Z,8.98
2022-11-07T06:21:17.254Z,9.05
2022-11-07T06:26:19.129Z,9.14
2022-11-07T06:31:22.189Z,9.21
2022-11-07T06:36:24.007Z,9.29
2022-11-07T06:41:25.856Z,9.37
2022-11-07T06:46:27.763Z,9.44
2022-11-07T06:51:29.645Z,9.50
2022-11-07T06:56:31.446Z,9.57
2022-11-07T07:01:33.413Z,9.64
2022-11-07T07:06:35.375Z,9.73
2022-11-07T07:11:38.002Z,9.81
2022-11-07T07:16:39.956Z,9.92
2022-11-07T07:21:41.701Z,9.99
2022-11-07T07:26:43.504Z,10.06
2022-11-07T07:31:46.609Z,10.13
2022-11-07T07:36:48.794Z,10.23
2022-11-07T07:41:50.979Z,10.35
2022-11-07T07:46:54.906Z,10.44
2022-11-07T07:51:56.787Z,10.57
2022-11-07T07:56:58.660Z,10.70
2022-11-07T08:02:00.680Z,10.77
2022-11-07T08:07:03.127Z,10.80
2022-11-07T08:12:06.544Z,10.81
2022-11-07T08:17:08.433Z,10.86
2022-11-07T08:22:11.560Z,10.94
2022-11-07T08:27:13.509Z,11.04
2022-11-07T08:32:15.620Z,11.17
2022-11-07T08:37:17.467Z,11.31
2022-11-07T08:42:19.272Z,11.42
2022-11-07T08:47:21.318Z,11.49
2022-11-07T08:52:23.198Z,11.53
2022-11-07T08:57:24.948Z,11.53
2022-11-07T09:03:08.518Z,11.59
2022-11-07T09:07:49.260Z,11.67
2022-11-07T09:12:52.415Z,11.70
2022-11-07T09:17:54.296Z,11.73
2022-11-07T09:22:57.674Z,11.80
2022-11-07T09:28:03.236Z,11.91
2022-11-07T09:33:05.151Z,11.96
2022-11-07T09:38:06.928Z,11.85
2022-11-07T09:43:18.196Z,11.76
2022-11-07T09:48:24.405Z,11.71
2022-11-07T09:53:33.366Z,11.78
2022-11-07T09:58:41.060Z,12.04
2022-11-07T10:04:10.173Z,12.26
2022-11-07T10:09:22.479Z,12.28
2022-11-07T10:15:01.646Z,12.24
2022-11-07T10:20:24.917Z,12.29
2022-11-07T10:25:37.768Z,12.48
2022-11-07T10:30:40.980Z,12.74
2022-11-07T10:35:48.064Z,12.92
2022-11-07T10:40:51.687Z,13.07
2022-11-07T10:45:55.736Z,13.22
2022-11-07T10:50:58.204Z,13.30
2022-11-07T10:56:00.622Z,13.38
2022-11-07T11:01:06.228Z,13.54
2022-11-07T11:06:20.833Z,13.74
2022-11-07T11:11:33.860Z,13.75
2022-11-07T11:16:38.654Z,13.83
2022-11-07T11:21:46.043Z,13.90
2022-11-07T11:26:50.475Z,13.96
2022-11-07T11:31:55.104Z,14.01
2022-11-07T11:37:05.889Z,14.08
2022-11-07T11:42:21.291Z,14.09
2022-11-07T11:47:34.202Z,14.13
2022-11-07T11:52:36.733Z,14.25
2022-11-07T11:57:54.463Z,14.33
2022-11-07T12:03:35.046Z,14.37
2022-11-07T12:09:23.374Z,14.37
2022-11-07T12:14:57.423Z,14.43
2022-11-07T12:20:23.085Z,14.48
2022-11-07T12:25:49.512Z,14.57
2022-11-07T12:30:51.309Z,14.63
2022-11-07T12:36:00.457Z,14.76
2022-11-07T12:41:25.273Z,14.78
2022-11-07T12:46:37.952Z,14.85
2022-11-07T12:52:14.188Z,14.98
2022-11-07T12:57:20.650Z,14.90
2022-11-07T13:02:43.806Z,14.53
2022-11-07T13:07:51.440Z,14.23
2022-11-07T13:13:05.213Z,13.97
2022-11-07T13:18:39.052Z,13.94
2022-11-07T13:23:41.744Z,14.44
2022-11-07T13:28:56.213Z,14.75
2022-11-07T13:34:11.427Z,14.89
2022-11-07T13:39:14.855Z,14.93
2022-11-07T13:44:28.467Z,14.76
2022-11-07T13:49:44.620Z,14.58
2022-11-07T13:54:53.973Z,14.54
2022-11-07T14:00:01.187Z,14.57
2022-11-07T14:05:21.048Z,14.58
2022-11-07T14:10:26.739Z,14.60
2022-11-07T14:15:30.642Z,14.50
2022-11-07T14:20:32.529Z,14.40
2022-11-07T14:25:35.711Z,14.21
2022-11-07T14:30:41.469Z,14.13
2022-11-07T14:35:46.775Z,14.05
2022-11-07T14:40:50.764Z,13.94
2022-11-07T14:46:17.625Z,13.85
2022-11-07T14:51:24.854Z,13.79
2022-11-07T14:56:32.953Z,13.61
2022-11-07T15:01:34.868Z,13.36
2022-11-07T15:06:42.931Z,13.10
2022-11-07T15:11:58.585Z,12.82
2022-11-07T15:17:04.260Z,12.50
2022-11-07T15:22:06.206Z,12.20
2022-11-07T15:27:13.810Z,11.90
2022-11-07T15:32:19.059Z,11.63
2022-11-07T15:37:23.313Z,11.38
2022-11-07T15:42:25.176Z,11.14
2022-11-07T15:47:27.155Z,10.94
2022-11-07T15:52:29.040Z,10.76
2022-11-07T15:57:31.611Z,10.60
2022-11-07T16:02:34.632Z,10.47
2022-11-07T16:07:37.081Z,10.36
2022-11-07T16:12:38.819Z,10.29
2022-11-07T16:17:40.875Z,10.26
2022-11-07T16:22:46.939Z,10.25
2022-11-07T16:27:59.212Z,10.25
2022-11-07T16:33:01.050Z,10.25
2022-11-07T16:38:11.518Z,10.25
2022-11-07T16:43:13.405Z,10.24
2022-11-07T16:48:22.720Z,10.22
2022-11-07T16:53:25.864Z,10.17
2022-11-07T16:58:30.161Z,10.15
2022-11-07T17:03:33.102Z,10.13
2022-11-07T17:08:39.385Z,10.10
2022-11-07T17:13:41.563Z,10.04
2022-11-07T17:18:44.268Z,9.98
2022-11-07T17:23:46.141Z,9.95
2022-11-07T17:28:49.115Z,9.90
2022-11-07T17:33:51.245Z,9.85
2022-11-07T17:38:54.307Z,9.81
2022-11-07T17:43:58.017Z,9.75
2022-11-07T17:49:07.068Z,9.69
2022-11-07T17:54:12.356Z,9.59
2022-11-07T17:59:17.303Z,9.48
2022-11-07T18:04:19.180Z,9.37
2022-11-07T18:09:20.986Z,9.26
2022-11-07T18:14:22.837Z,9.15
2022-11-07T18:19:24.643Z,9.04
2022-11-07T18:24:26.621Z,8.95
2022-11-07T18:29:28.456Z,8.85
2022-11-07T18:34:30.340Z,8.73
2022-11-07T18:39:32.864Z,8.62
2022-11-07T18:44:34.660Z,8.52
2022-11-07T18:49:36.686Z,8.42
2022-11-07T18:54:38.572Z,8.33
2022-11-07T18:59:40.449Z,8.27
2022-11-07T19:04:44.098Z,8.23
2022-11-07T19:09:45.942Z,8.21
2022-11-07T19:14:47.820Z,8.22
2022-11-07T19:19:49.695Z,8.25
2022-11-07T19:24:51.579Z,8.27
2022-11-07T19:29:53.490Z,8.31
2022-11-07T19:34:55.742Z,8.33
2022-11-07T19:39:57.612Z,8.33
2022-11-07T19:44:59.706Z,8.31
2022-11-07T19:50:01.559Z,8.29
2022-11-07T19:55:04.582Z,8.29
2022-11-07T20:00:08.376Z,8.27
2022-11-07T20:05:11.790Z,8.23
2022-11-07T20:10:13.692Z,8.18
2022-11-07T20:15:16.206Z,8.15
2022-11-07T20:20:18.062Z,8.11
2022-11-07T20:25:20.250Z,8.05
2022-11-07T20:30:22.016Z,8.01
2022-11-07T20:35:23.897Z,7.99
2022-11-07T20:40:29.184Z,7.98
2022-11-07T20:45:31.376Z,7.97
2022-11-07T20:50:33.237Z,7.95
2022-11-07T20:55:39.872Z,7.94
2022-11-07T21:00:42.788Z,7.96
2022-11-07T21:05:44.699Z,7.98
2022-11-07T21:10:49.124Z,7.99
2022-11-07T21:15:51.398Z,7.99
2022-11-07T21:20:53.698Z,8.00
2022-11-07T21:25:55.878Z,8.02
2022-11-07T21:31:06.040Z,8.05
2022-11-07T21:36:20.000Z,8.09
2022-11-07T21:41:22.097Z,8.13
2022-11-07T21:46:26.639Z,8.17
2022-11-07T21:51:30.666Z,8.19
2022-11-07T21:56:38.892Z,8.20
2022-11-07T22:01:41.613Z,8.21
2022-11-07T22:06:45.718Z,8.21
2022-11-07T22:11:50.048Z,8.20
2022-11-07T22:16:55.097Z,8.18
2022-11-07T22:21:56.892Z,8.14
2022-11-07T22:27:08.780Z,8.08
2022-11-07T22:32:11.893Z,8.03
2022-11-07T22:37:13.721Z,7.95
2022-11-07T22:42:18.508Z,7.88
2022-11-07T22:47:28.997Z,7.82
2022-11-07T22:52:30.872Z,7.78
2022-11-07T22:57:32.752Z,7.73
2022-11-07T23:02:34.775Z,7.66
2022-11-07T23:07:36.910Z,7.63
2022-11-07T23:12:38.649Z,7.59
2022-11-07T23:17:40.968Z,7.55
2022-11-07T23:22:42.721Z,7.57
2022-11-07T23:27:44.526Z,7.60
2022-11-07T23:32:46.406Z,7.60
2022-11-07T23:37:50.032Z,7.60
2022-11-07T23:42:51.904Z,7.60
2022-11-07T23:48:12.524Z,7.57
2022-11-07T23:53:33.134Z,7.56
2022-11-07T23:58:53.618Z,7.56
